sensor_id;sensor_type;location;lat;lon;timestamp;temperature;humidity
7234;DHT22;3658;47.992;10.158;2022-07-23T00:01:38;25.40;53.70
7234;DHT22;3658;47.992;10.158;2022-07-23T00:04:06;25.40;53.70
7234;DHT22;3658;47.992;10.158;2022-07-23T00:06:35;25.40;53.70
7234;DHT22;3658;47.992;10.158;2022-07-23T00:09:02;25.30;53.60
7234;DHT22;3658;47.992;10.158;2022-07-23T00:11:29;25.40;53.70
7234;DHT22;3658;47.992;10.158;2022-07-23T00:13:56;25.40;53.70
7234;DHT22;3658;47.992;10.158;2022-07-23T00:16:23;25.40;54.30
7234;DHT22;3658;47.992;10.158;2022-07-23T00:18:50;25.40;53.60
7234;DHT22;3658;47.992;10.158;2022-07-23T00:21:17;25.40;53.60
7234;DHT22;3658;47.992;10.158;2022-07-23T00:23:46;25.30;53.50
7234;DHT22;3658;47.992;10.158;2022-07-23T00:26:13;25.30;53.50
7234;DHT22;3658;47.992;10.158;2022-07-23T00:28:40;25.40;53.60
7234;DHT22;3658;47.992;10.158;2022-07-23T00:31:07;25.40;53.60
7234;DHT22;3658;47.992;10.158;2022-07-23T00:33:34;25.30;53.50
7234;DHT22;3658;47.992;10.158;2022-07-23T00:36:01;25.30;53.60
7234;DHT22;3658;47.992;10.158;2022-07-23T00:38:28;25.30;53.50
7234;DHT22;3658;47.992;10.158;2022-07-23T00:40:56;25.30;53.50
7234;DHT22;3658;47.992;10.158;2022-07-23T00:43:23;25.40;53.60
7234;DHT22;3658;47.992;10.158;2022-07-23T00:45:51;25.40;53.60
7234;DHT22;3658;47.992;10.158;2022-07-23T00:48:18;25.40;53.50
7234;DHT22;3658;47.992;10.158;2022-07-23T00:50:45;25.40;53.60
7234;DHT22;3658;47.992;10.158;2022-07-23T00:53:12;25.30;53.50
7234;DHT22;3658;47.992;10.158;2022-07-23T00:55:40;25.30;53.50
7234;DHT22;3658;47.992;10.158;2022-07-23T00:58:09;25.40;53.50
7234;DHT22;3658;47.992;10.158;2022-07-23T01:00:36;25.40;53.50
7234;DHT22;3658;47.992;10.158;2022-07-23T01:03:03;25.40;53.60
7234;DHT22;3658;47.992;10.158;2022-07-23T01:05:30;25.40;53.50
7234;DHT22;3658;47.992;10.158;2022-07-23T01:07:57;25.30;53.50
7234;DHT22;3658;47.992;10.158;2022-07-23T01:10:25;25.40;53.50
7234;DHT22;3658;47.992;10.158;2022-07-23T01:12:58;25.40;53.50
7234;DHT22;3658;47.992;10.158;2022-07-23T01:15:26;25.40;53.50
7234;DHT22;3658;47.992;10.158;2022-07-23T01:17:53;25.40;53.50
7234;DHT22;3658;47.992;10.158;2022-07-23T01:20:21;25.40;53.50
7234;DHT22;3658;47.992;10.158;2022-07-23T01:22:50;25.40;53.50
7234;DHT22;3658;47.992;10.158;2022-07-23T01:25:17;25.40;53.50
7234;DHT22;3658;47.992;10.158;2022-07-23T01:27:45;25.40;53.50
7234;DHT22;3658;47.992;10.158;2022-07-23T01:30:12;25.40;53.50
7234;DHT22;3658;47.992;10.158;2022-07-23T01:32:40;25.30;53.40
7234;DHT22;3658;47.992;10.158;2022-07-23T01:35:07;25.40;53.50
7234;DHT22;3658;47.992;10.158;2022-07-23T01:37:35;25.40;53.50
7234;DHT22;3658;47.992;10.158;2022-07-23T01:40:05;25.40;53.50
7234;DHT22;3658;47.992;10.158;2022-07-23T01:42:32;25.40;53.50
7234;DHT22;3658;47.992;10.158;2022-07-23T01:44:59;25.30;53.40
7234;DHT22;3658;47.992;10.158;2022-07-23T01:47:26;25.40;53.50
7234;DHT22;3658;47.992;10.158;2022-07-23T01:49:53;25.40;53.50
7234;DHT22;3658;47.992;10.158;2022-07-23T01:52:20;25.40;53.50
7234;DHT22;3658;47.992;10.158;2022-07-23T01:54:47;25.40;53.50
7234;DHT22;3658;47.992;10.158;2022-07-23T01:57:16;25.40;53.50
7234;DHT22;3658;47.992;10.158;2022-07-23T01:59:43;25.40;53.50
7234;DHT22;3658;47.992;10.158;2022-07-23T02:02:10;25.40;53.40
7234;DHT22;3658;47.992;10.158;2022-07-23T02:04:37;25.40;53.40
7234;DHT22;3658;47.992;10.158;2022-07-23T02:07:04;25.40;53.40
7234;DHT22;3658;47.992;10.158;2022-07-23T02:09:32;25.30;53.40
7234;DHT22;3658;47.992;10.158;2022-07-23T02:11:59;25.30;53.40
7234;DHT22;3658;47.992;10.158;2022-07-23T02:14:27;25.30;53.40
7234;DHT22;3658;47.992;10.158;2022-07-23T02:16:54;25.40;53.40
7234;DHT22;3658;47.992;10.158;2022-07-23T02:19:21;25.30;53.40
7234;DHT22;3658;47.992;10.158;2022-07-23T02:21:48;25.40;53.50
7234;DHT22;3658;47.992;10.158;2022-07-23T02:24:16;25.30;53.40
7234;DHT22;3658;47.992;10.158;2022-07-23T02:26:43;25.30;53.40
7234;DHT22;3658;47.992;10.158;2022-07-23T02:29:10;25.40;53.40
7234;DHT22;3658;47.992;10.158;2022-07-23T02:31:38;25.40;53.40
7234;DHT22;3658;47.992;10.158;2022-07-23T02:34:05;25.40;53.40
7234;DHT22;3658;47.992;10.158;2022-07-23T02:36:32;25.40;53.40
7234;DHT22;3658;47.992;10.158;2022-07-23T02:38:59;25.40;53.40
7234;DHT22;3658;47.992;10.158;2022-07-23T02:41:27;25.30;53.40
7234;DHT22;3658;47.992;10.158;2022-07-23T02:43:54;25.40;53.40
7234;DHT22;3658;47.992;10.158;2022-07-23T02:46:21;25.40;53.40
7234;DHT22;3658;47.992;10.158;2022-07-23T02:48:49;25.40;53.40
7234;DHT22;3658;47.992;10.158;2022-07-23T02:51:16;25.40;53.50
7234;DHT22;3658;47.992;10.158;2022-07-23T02:53:43;25.40;53.40
7234;DHT22;3658;47.992;10.158;2022-07-23T02:56:10;25.40;53.40
7234;DHT22;3658;47.992;10.158;2022-07-23T02:58:37;25.30;54.00
7234;DHT22;3658;47.992;10.158;2022-07-23T03:01:04;25.40;53.50
7234;DHT22;3658;47.992;10.158;2022-07-23T03:03:31;25.40;53.40
7234;DHT22;3658;47.992;10.158;2022-07-23T03:05:59;25.40;53.40
7234;DHT22;3658;47.992;10.158;2022-07-23T03:08:27;25.40;53.40
7234;DHT22;3658;47.992;10.158;2022-07-23T03:10:54;25.40;53.50
7234;DHT22;3658;47.992;10.158;2022-07-23T03:13:21;25.40;53.40
7234;DHT22;3658;47.992;10.158;2022-07-23T03:15:48;25.40;53.40
7234;DHT22;3658;47.992;10.158;2022-07-23T03:18:15;25.40;53.40
7234;DHT22;3658;47.992;10.158;2022-07-23T03:20:42;25.30;53.40
7234;DHT22;3658;47.992;10.158;2022-07-23T03:23:10;25.40;53.50
7234;DHT22;3658;47.992;10.158;2022-07-23T03:25:37;25.30;53.40
7234;DHT22;3658;47.992;10.158;2022-07-23T03:28:04;25.40;53.40
7234;DHT22;3658;47.992;10.158;2022-07-23T03:30:31;25.30;53.40
7234;DHT22;3658;47.992;10.158;2022-07-23T03:32:58;25.40;53.50
7234;DHT22;3658;47.992;10.158;2022-07-23T03:35:25;25.40;53.40
7234;DHT22;3658;47.992;10.158;2022-07-23T03:37:52;25.40;53.40
7234;DHT22;3658;47.992;10.158;2022-07-23T03:40:21;25.40;53.40
7234;DHT22;3658;47.992;10.158;2022-07-23T03:42:48;25.40;53.40
7234;DHT22;3658;47.992;10.158;2022-07-23T03:45:15;25.40;53.40
7234;DHT22;3658;47.992;10.158;2022-07-23T03:47:42;25.40;53.40
7234;DHT22;3658;47.992;10.158;2022-07-23T03:50:10;25.40;53.40
7234;DHT22;3658;47.992;10.158;2022-07-23T03:52:37;25.30;53.40
7234;DHT22;3658;47.992;10.158;2022-07-23T03:55:05;25.30;53.40
7234;DHT22;3658;47.992;10.158;2022-07-23T03:57:33;25.40;53.40
7234;DHT22;3658;47.992;10.158;2022-07-23T04:00:00;25.40;53.40
7234;DHT22;3658;47.992;10.158;2022-07-23T04:02:27;25.30;53.50
7234;DHT22;3658;47.992;10.158;2022-07-23T04:04:54;25.30;53.40
7234;DHT22;3658;47.992;10.158;2022-07-23T04:07:21;25.40;53.40
7234;DHT22;3658;47.992;10.158;2022-07-23T04:09:48;25.40;53.40
7234;DHT22;3658;47.992;10.158;2022-07-23T04:12:15;25.40;53.40
7234;DHT22;3658;47.992;10.158;2022-07-23T04:14:44;25.40;53.40
7234;DHT22;3658;47.992;10.158;2022-07-23T04:17:11;25.30;53.30
7234;DHT22;3658;47.992;10.158;2022-07-23T04:19:38;25.40;53.40
7234;DHT22;3658;47.992;10.158;2022-07-23T04:22:07;25.40;53.40
7234;DHT22;3658;47.992;10.158;2022-07-23T04:24:34;25.40;53.40
7234;DHT22;3658;47.992;10.158;2022-07-23T04:27:02;25.40;53.40
7234;DHT22;3658;47.992;10.158;2022-07-23T04:29:29;25.40;53.40
7234;DHT22;3658;47.992;10.158;2022-07-23T04:31:57;25.30;53.40
7234;DHT22;3658;47.992;10.158;2022-07-23T04:34:24;25.30;53.40
7234;DHT22;3658;47.992;10.158;2022-07-23T04:36:52;25.40;53.40
7234;DHT22;3658;47.992;10.158;2022-07-23T04:39:19;25.30;53.40
7234;DHT22;3658;47.992;10.158;2022-07-23T04:41:46;25.30;53.30
7234;DHT22;3658;47.992;10.158;2022-07-23T04:44:13;25.30;53.40
7234;DHT22;3658;47.992;10.158;2022-07-23T04:46:40;25.30;53.40
7234;DHT22;3658;47.992;10.158;2022-07-23T04:49:09;25.30;53.30
7234;DHT22;3658;47.992;10.158;2022-07-23T04:51:36;25.30;53.30
7234;DHT22;3658;47.992;10.158;2022-07-23T04:54:03;25.40;53.40
7234;DHT22;3658;47.992;10.158;2022-07-23T04:56:30;25.40;53.40
7234;DHT22;3658;47.992;10.158;2022-07-23T04:58:57;25.30;53.30
7234;DHT22;3658;47.992;10.158;2022-07-23T05:01:24;25.30;53.30
7234;DHT22;3658;47.992;10.158;2022-07-23T05:03:51;25.30;53.30
7234;DHT22;3658;47.992;10.158;2022-07-23T05:06:20;25.40;53.40
7234;DHT22;3658;47.992;10.158;2022-07-23T05:08:47;25.40;53.30
7234;DHT22;3658;47.992;10.158;2022-07-23T05:11:14;25.30;53.60
7234;DHT22;3658;47.992;10.158;2022-07-23T05:13:41;25.30;54.20
7234;DHT22;3658;47.992;10.158;2022-07-23T05:16:08;25.20;54.40
7234;DHT22;3658;47.992;10.158;2022-07-23T05:18:35;25.20;54.50
7234;DHT22;3658;47.992;10.158;2022-07-23T05:21:02;25.20;54.40
7234;DHT22;3658;47.992;10.158;2022-07-23T05:23:31;25.20;54.20
7234;DHT22;3658;47.992;10.158;2022-07-23T05:25:58;25.20;54.10
7234;DHT22;3658;47.992;10.158;2022-07-23T05:28:25;25.30;54.10
7234;DHT22;3658;47.992;10.158;2022-07-23T05:30:52;25.30;54.10
7234;DHT22;3658;47.992;10.158;2022-07-23T05:33:19;25.30;54.00
7234;DHT22;3658;47.992;10.158;2022-07-23T05:35:46;25.30;54.00
7234;DHT22;3658;47.992;10.158;2022-07-23T05:38:13;25.30;54.00
7234;DHT22;3658;47.992;10.158;2022-07-23T05:40:42;25.20;54.40
7234;DHT22;3658;47.992;10.158;2022-07-23T05:43:09;25.30;54.90
7234;DHT22;3658;47.992;10.158;2022-07-23T05:45:36;25.30;54.70
7234;DHT22;3658;47.992;10.158;2022-07-23T05:48:03;25.30;54.10
7234;DHT22;3658;47.992;10.158;2022-07-23T05:50:31;25.30;54.10
7234;DHT22;3658;47.992;10.158;2022-07-23T05:52:58;25.30;54.50
7234;DHT22;3658;47.992;10.158;2022-07-23T05:55:25;25.20;54.60
7234;DHT22;3658;47.992;10.158;2022-07-23T05:57:56;25.20;54.80
7234;DHT22;3658;47.992;10.158;2022-07-23T06:00:23;25.10;54.80
7234;DHT22;3658;47.992;10.158;2022-07-23T06:02:50;25.20;54.70
7234;DHT22;3658;47.992;10.158;2022-07-23T06:05:17;25.20;55.10
7234;DHT22;3658;47.992;10.158;2022-07-23T06:07:44;25.20;54.40
7234;DHT22;3658;47.992;10.158;2022-07-23T06:10:12;25.20;54.40
7234;DHT22;3658;47.992;10.158;2022-07-23T06:12:39;25.20;54.40
7234;DHT22;3658;47.992;10.158;2022-07-23T06:15:09;25.20;54.30
7234;DHT22;3658;47.992;10.158;2022-07-23T06:17:36;25.20;54.40
7234;DHT22;3658;47.992;10.158;2022-07-23T06:20:05;25.30;54.40
7234;DHT22;3658;47.992;10.158;2022-07-23T06:22:33;25.20;54.20
7234;DHT22;3658;47.992;10.158;2022-07-23T06:25:01;25.20;54.20
7234;DHT22;3658;47.992;10.158;2022-07-23T06:27:28;25.20;54.20
7234;DHT22;3658;47.992;10.158;2022-07-23T06:29:55;25.20;54.20
7234;DHT22;3658;47.992;10.158;2022-07-23T06:32:23;25.20;54.20
7234;DHT22;3658;47.992;10.158;2022-07-23T06:34:50;25.30;54.30
7234;DHT22;3658;47.992;10.158;2022-07-23T06:37:17;25.30;54.20
7234;DHT22;3658;47.992;10.158;2022-07-23T06:39:44;25.30;54.20
7234;DHT22;3658;47.992;10.158;2022-07-23T06:42:11;25.20;54.20
7234;DHT22;3658;47.992;10.158;2022-07-23T06:44:39;25.30;54.30
7234;DHT22;3658;47.992;10.158;2022-07-23T06:47:06;25.30;54.20
7234;DHT22;3658;47.992;10.158;2022-07-23T06:49:35;25.30;54.20
7234;DHT22;3658;47.992;10.158;2022-07-23T06:52:02;25.30;54.20
7234;DHT22;3658;47.992;10.158;2022-07-23T06:54:29;25.30;54.20
7234;DHT22;3658;47.992;10.158;2022-07-23T06:56:56;25.30;54.20
7234;DHT22;3658;47.992;10.158;2022-07-23T06:59:23;25.30;54.20
7234;DHT22;3658;47.992;10.158;2022-07-23T07:01:50;25.30;54.20
7234;DHT22;3658;47.992;10.158;2022-07-23T07:04:17;25.20;54.10
7234;DHT22;3658;47.992;10.158;2022-07-23T07:06:46;25.30;54.20
7234;DHT22;3658;47.992;10.158;2022-07-23T07:09:14;25.30;54.20
7234;DHT22;3658;47.992;10.158;2022-07-23T07:11:43;25.30;54.20
7234;DHT22;3658;47.992;10.158;2022-07-23T07:14:10;25.20;54.10
7234;DHT22;3658;47.992;10.158;2022-07-23T07:16:38;25.30;54.20
7234;DHT22;3658;47.992;10.158;2022-07-23T07:19:05;25.30;54.20
7234;DHT22;3658;47.992;10.158;2022-07-23T07:21:32;25.30;54.20
7234;DHT22;3658;47.992;10.158;2022-07-23T07:24:00;25.30;54.10
7234;DHT22;3658;47.992;10.158;2022-07-23T07:26:28;25.30;54.20
7234;DHT22;3658;47.992;10.158;2022-07-23T07:28:55;25.30;54.10
7234;DHT22;3658;47.992;10.158;2022-07-23T07:31:22;25.30;54.20
7234;DHT22;3658;47.992;10.158;2022-07-23T07:33:49;25.30;54.10
7234;DHT22;3658;47.992;10.158;2022-07-23T07:36:16;25.30;54.10
7234;DHT22;3658;47.992;10.158;2022-07-23T07:38:43;25.30;54.10
7234;DHT22;3658;47.992;10.158;2022-07-23T07:41:11;25.30;54.10
7234;DHT22;3658;47.992;10.158;2022-07-23T07:43:38;25.30;54.10
7234;DHT22;3658;47.992;10.158;2022-07-23T07:46:06;25.30;54.20
7234;DHT22;3658;47.992;10.158;2022-07-23T07:48:35;25.30;54.50
7234;DHT22;3658;47.992;10.158;2022-07-23T07:51:03;25.30;54.30
7234;DHT22;3658;47.992;10.158;2022-07-23T07:53:30;25.30;54.40
7234;DHT22;3658;47.992;10.158;2022-07-23T07:55:57;25.30;54.40
7234;DHT22;3658;47.992;10.158;2022-07-23T07:58:26;25.30;54.40
7234;DHT22;3658;47.992;10.158;2022-07-23T08:00:53;25.30;54.40
7234;DHT22;3658;47.992;10.158;2022-07-23T08:03:20;25.30;54.40
7234;DHT22;3658;47.992;10.158;2022-07-23T08:05:47;25.30;54.40
7234;DHT22;3658;47.992;10.158;2022-07-23T08:08:14;25.30;54.50
7234;DHT22;3658;47.992;10.158;2022-07-23T08:10:42;25.30;54.30
7234;DHT22;3658;47.992;10.158;2022-07-23T08:13:13;25.30;54.20
7234;DHT22;3658;47.992;10.158;2022-07-23T08:15:43;25.30;54.20
7234;DHT22;3658;47.992;10.158;2022-07-23T08:18:10;25.30;54.20
7234;DHT22;3658;47.992;10.158;2022-07-23T08:20:37;25.30;55.20
7234;DHT22;3658;47.992;10.158;2022-07-23T08:23:05;25.30;56.20
7234;DHT22;3658;47.992;10.158;2022-07-23T08:25:34;25.30;57.40
7234;DHT22;3658;47.992;10.158;2022-07-23T08:28:03;25.30;57.10
7234;DHT22;3658;47.992;10.158;2022-07-23T08:30:31;25.30;57.00
7234;DHT22;3658;47.992;10.158;2022-07-23T08:33:03;25.20;56.90
7234;DHT22;3658;47.992;10.158;2022-07-23T08:35:33;25.30;57.10
7234;DHT22;3658;47.992;10.158;2022-07-23T08:38:03;25.20;57.30
7234;DHT22;3658;47.992;10.158;2022-07-23T08:40:32;25.20;57.10
7234;DHT22;3658;47.992;10.158;2022-07-23T08:42:59;25.20;57.50
7234;DHT22;3658;47.992;10.158;2022-07-23T08:45:28;25.30;57.00
7234;DHT22;3658;47.992;10.158;2022-07-23T08:47:56;25.30;57.20
7234;DHT22;3658;47.992;10.158;2022-07-23T08:50:26;25.40;57.30
7234;DHT22;3658;47.992;10.158;2022-07-23T08:52:53;25.40;57.20
7234;DHT22;3658;47.992;10.158;2022-07-23T08:55:22;25.40;57.30
7234;DHT22;3658;47.992;10.158;2022-07-23T08:57:51;25.40;57.60
7234;DHT22;3658;47.992;10.158;2022-07-23T09:00:19;25.40;57.60
7234;DHT22;3658;47.992;10.158;2022-07-23T09:02:47;25.40;57.70
7234;DHT22;3658;47.992;10.158;2022-07-23T09:05:15;25.40;57.70
7234;DHT22;3658;47.992;10.158;2022-07-23T09:08:09;25.40;57.70
7234;DHT22;3658;47.992;10.158;2022-07-23T09:10:44;25.40;57.90
7234;DHT22;3658;47.992;10.158;2022-07-23T09:13:29;25.40;57.90
7234;DHT22;3658;47.992;10.158;2022-07-23T09:15:58;25.40;57.70
7234;DHT22;3658;47.992;10.158;2022-07-23T09:18:30;25.40;57.70
7234;DHT22;3658;47.992;10.158;2022-07-23T09:21:12;25.40;57.60
7234;DHT22;3658;47.992;10.158;2022-07-23T09:23:43;25.40;57.60
7234;DHT22;3658;47.992;10.158;2022-07-23T09:26:25;25.40;57.40
7234;DHT22;3658;47.992;10.158;2022-07-23T09:28:57;25.40;57.40
7234;DHT22;3658;47.992;10.158;2022-07-23T09:31:31;25.40;57.60
7234;DHT22;3658;47.992;10.158;2022-07-23T09:34:11;25.40;57.40
7234;DHT22;3658;47.992;10.158;2022-07-23T09:36:39;25.40;57.50
7234;DHT22;3658;47.992;10.158;2022-07-23T09:39:08;25.30;56.90
7234;DHT22;3658;47.992;10.158;2022-07-23T09:41:38;25.30;56.70
7234;DHT22;3658;47.992;10.158;2022-07-23T09:44:10;25.30;57.00
7234;DHT22;3658;47.992;10.158;2022-07-23T09:46:38;25.30;56.80
7234;DHT22;3658;47.992;10.158;2022-07-23T09:49:18;25.30;56.60
7234;DHT22;3658;47.992;10.158;2022-07-23T09:51:47;25.30;56.50
7234;DHT22;3658;47.992;10.158;2022-07-23T09:54:32;25.30;56.60
7234;DHT22;3658;47.992;10.158;2022-07-23T09:57:03;25.30;56.40
7234;DHT22;3658;47.992;10.158;2022-07-23T09:59:35;25.30;56.30
7234;DHT22;3658;47.992;10.158;2022-07-23T10:02:04;25.30;56.50
7234;DHT22;3658;47.992;10.158;2022-07-23T10:04:31;25.30;56.50
7234;DHT22;3658;47.992;10.158;2022-07-23T10:07:00;25.30;56.50
7234;DHT22;3658;47.992;10.158;2022-07-23T10:09:31;25.30;56.70
7234;DHT22;3658;47.992;10.158;2022-07-23T10:11:59;25.30;56.80
7234;DHT22;3658;47.992;10.158;2022-07-23T10:14:38;25.30;57.00
7234;DHT22;3658;47.992;10.158;2022-07-23T10:17:04;25.20;57.00
7234;DHT22;3658;47.992;10.158;2022-07-23T10:19:32;25.30;57.10
7234;DHT22;3658;47.992;10.158;2022-07-23T10:22:01;25.30;57.00
7234;DHT22;3658;47.992;10.158;2022-07-23T10:27:52;25.20;57.50
7234;DHT22;3658;47.992;10.158;2022-07-23T10:30:30;25.20;57.60
7234;DHT22;3658;47.992;10.158;2022-07-23T10:33:14;25.20;57.40
7234;DHT22;3658;47.992;10.158;2022-07-23T10:35:48;25.20;57.50
7234;DHT22;3658;47.992;10.158;2022-07-23T10:38:22;25.20;57.60
7234;DHT22;3658;47.992;10.158;2022-07-23T10:40:58;25.20;57.70
7234;DHT22;3658;47.992;10.158;2022-07-23T10:43:25;25.20;57.80
7234;DHT22;3658;47.992;10.158;2022-07-23T10:45:53;25.20;57.70
7234;DHT22;3658;47.992;10.158;2022-07-23T10:48:22;25.20;57.60
7234;DHT22;3658;47.992;10.158;2022-07-23T10:51:09;25.20;57.80
7234;DHT22;3658;47.992;10.158;2022-07-23T10:53:56;25.20;58.20
7234;DHT22;3658;47.992;10.158;2022-07-23T11:02:42;25.20;57.40
7234;DHT22;3658;47.992;10.158;2022-07-23T11:05:12;25.30;57.30
7234;DHT22;3658;47.992;10.158;2022-07-23T11:08:11;25.30;57.30
7234;DHT22;3658;47.992;10.158;2022-07-23T11:10:42;25.30;57.50
7234;DHT22;3658;47.992;10.158;2022-07-23T11:13:27;25.30;57.30
7234;DHT22;3658;47.992;10.158;2022-07-23T11:16:24;25.30;57.30
7234;DHT22;3658;47.992;10.158;2022-07-23T11:19:03;25.30;57.20
7234;DHT22;3658;47.992;10.158;2022-07-23T11:21:47;25.30;57.30
7234;DHT22;3658;47.992;10.158;2022-07-23T11:24:16;25.30;57.40
7234;DHT22;3658;47.992;10.158;2022-07-23T11:26:53;25.30;57.60
7234;DHT22;3658;47.992;10.158;2022-07-23T11:29:48;25.30;57.40
7234;DHT22;3658;47.992;10.158;2022-07-23T11:32:33;25.30;57.20
7234;DHT22;3658;47.992;10.158;2022-07-23T11:35:18;25.30;57.10
7234;DHT22;3658;47.992;10.158;2022-07-23T11:37:45;25.30;57.10
7234;DHT22;3658;47.992;10.158;2022-07-23T11:40:15;25.30;57.00
7234;DHT22;3658;47.992;10.158;2022-07-23T11:42:52;25.30;57.00
7234;DHT22;3658;47.992;10.158;2022-07-23T11:45:19;25.30;56.90
7234;DHT22;3658;47.992;10.158;2022-07-23T11:47:47;25.30;56.90
7234;DHT22;3658;47.992;10.158;2022-07-23T11:50:15;25.30;56.90
7234;DHT22;3658;47.992;10.158;2022-07-23T11:52:42;25.30;56.90
7234;DHT22;3658;47.992;10.158;2022-07-23T11:55:10;25.40;57.00
7234;DHT22;3658;47.992;10.158;2022-07-23T11:57:39;25.40;57.00
7234;DHT22;3658;47.992;10.158;2022-07-23T12:00:09;25.30;57.00
7234;DHT22;3658;47.992;10.158;2022-07-23T12:02:37;25.40;57.10
7234;DHT22;3658;47.992;10.158;2022-07-23T12:05:05;25.40;57.10
7234;DHT22;3658;47.992;10.158;2022-07-23T12:07:36;25.30;57.00
7234;DHT22;3658;47.992;10.158;2022-07-23T12:10:08;25.30;56.90
7234;DHT22;3658;47.992;10.158;2022-07-23T12:12:38;25.30;56.90
7234;DHT22;3658;47.992;10.158;2022-07-23T12:15:07;25.30;56.90
7234;DHT22;3658;47.992;10.158;2022-07-23T12:17:36;25.30;57.00
7234;DHT22;3658;47.992;10.158;2022-07-23T12:20:04;25.30;56.90
7234;DHT22;3658;47.992;10.158;2022-07-23T12:22:39;25.30;56.80
7234;DHT22;3658;47.992;10.158;2022-07-23T12:25:08;25.40;56.80
7234;DHT22;3658;47.992;10.158;2022-07-23T12:27:36;25.40;56.90
7234;DHT22;3658;47.992;10.158;2022-07-23T12:30:17;25.30;56.80
7234;DHT22;3658;47.992;10.158;2022-07-23T12:32:46;25.40;56.80
7234;DHT22;3658;47.992;10.158;2022-07-23T12:35:14;25.40;57.00
7234;DHT22;3658;47.992;10.158;2022-07-23T12:37:44;25.40;56.80
7234;DHT22;3658;47.992;10.158;2022-07-23T12:40:23;25.30;56.80
7234;DHT22;3658;47.992;10.158;2022-07-23T12:42:52;25.30;56.70
7234;DHT22;3658;47.992;10.158;2022-07-23T12:45:19;25.40;56.70
7234;DHT22;3658;47.992;10.158;2022-07-23T12:48:01;25.30;56.60
7234;DHT22;3658;47.992;10.158;2022-07-23T12:53:40;25.30;56.60
7234;DHT22;3658;47.992;10.158;2022-07-23T12:56:09;25.30;56.60
7234;DHT22;3658;47.992;10.158;2022-07-23T12:58:44;25.40;56.50
7234;DHT22;3658;47.992;10.158;2022-07-23T13:01:23;25.40;57.20
7234;DHT22;3658;47.992;10.158;2022-07-23T13:03:56;25.40;56.50
7234;DHT22;3658;47.992;10.158;2022-07-23T13:06:23;25.30;56.40
7234;DHT22;3658;47.992;10.158;2022-07-23T13:08:52;25.40;56.50
7234;DHT22;3658;47.992;10.158;2022-07-23T13:11:19;25.30;56.40
7234;DHT22;3658;47.992;10.158;2022-07-23T13:13:46;25.40;56.40
7234;DHT22;3658;47.992;10.158;2022-07-23T13:16:13;25.40;56.40
7234;DHT22;3658;47.992;10.158;2022-07-23T13:18:40;25.40;56.50
7234;DHT22;3658;47.992;10.158;2022-07-23T13:21:08;25.40;56.40
7234;DHT22;3658;47.992;10.158;2022-07-23T13:23:35;25.30;56.40
7234;DHT22;3658;47.992;10.158;2022-07-23T13:26:04;25.30;56.30
7234;DHT22;3658;47.992;10.158;2022-07-23T13:28:31;25.30;56.30
7234;DHT22;3658;47.992;10.158;2022-07-23T13:30:58;25.40;56.40
7234;DHT22;3658;47.992;10.158;2022-07-23T13:33:25;25.40;56.40
7234;DHT22;3658;47.992;10.158;2022-07-23T13:35:53;25.40;56.40
7234;DHT22;3658;47.992;10.158;2022-07-23T13:38:21;25.40;56.30
7234;DHT22;3658;47.992;10.158;2022-07-23T13:40:50;25.40;56.30
7234;DHT22;3658;47.992;10.158;2022-07-23T13:43:20;25.30;56.30
7234;DHT22;3658;47.992;10.158;2022-07-23T13:45:48;25.40;56.30
7234;DHT22;3658;47.992;10.158;2022-07-23T13:48:15;25.40;56.60
7234;DHT22;3658;47.992;10.158;2022-07-23T13:50:43;25.40;57.20
7234;DHT22;3658;47.992;10.158;2022-07-23T13:53:13;25.40;57.50
7234;DHT22;3658;47.992;10.158;2022-07-23T13:55:40;25.40;58.00
7234;DHT22;3658;47.992;10.158;2022-07-23T13:58:09;25.40;58.30
7234;DHT22;3658;47.992;10.158;2022-07-23T14:00:39;25.40;58.80
7234;DHT22;3658;47.992;10.158;2022-07-23T14:03:06;25.50;59.40
7234;DHT22;3658;47.992;10.158;2022-07-23T14:05:33;25.50;59.30
7234;DHT22;3658;47.992;10.158;2022-07-23T14:08:04;25.50;59.20
7234;DHT22;3658;47.992;10.158;2022-07-23T14:10:31;25.50;59.40
7234;DHT22;3658;47.992;10.158;2022-07-23T14:12:58;25.50;59.40
7234;DHT22;3658;47.992;10.158;2022-07-23T14:15:26;25.50;59.40
7234;DHT22;3658;47.992;10.158;2022-07-23T14:18:04;25.50;59.30
7234;DHT22;3658;47.992;10.158;2022-07-23T14:20:31;25.50;59.20
7234;DHT22;3658;47.992;10.158;2022-07-23T14:22:58;25.40;59.40
7234;DHT22;3658;47.992;10.158;2022-07-23T14:25:26;25.50;59.70
7234;DHT22;3658;47.992;10.158;2022-07-23T14:27:53;25.50;59.60
7234;DHT22;3658;47.992;10.158;2022-07-23T14:30:20;25.50;59.50
7234;DHT22;3658;47.992;10.158;2022-07-23T14:32:49;25.50;59.70
7234;DHT22;3658;47.992;10.158;2022-07-23T14:35:18;25.50;60.00
7234;DHT22;3658;47.992;10.158;2022-07-23T14:37:45;25.50;60.10
7234;DHT22;3658;47.992;10.158;2022-07-23T14:40:12;25.50;60.20
7234;DHT22;3658;47.992;10.158;2022-07-23T14:42:39;25.50;60.40
7234;DHT22;3658;47.992;10.158;2022-07-23T14:45:07;25.50;60.60
7234;DHT22;3658;47.992;10.158;2022-07-23T14:47:34;25.50;60.70
7234;DHT22;3658;47.992;10.158;2022-07-23T14:50:01;25.50;60.60
7234;DHT22;3658;47.992;10.158;2022-07-23T14:52:29;25.50;60.40
7234;DHT22;3658;47.992;10.158;2022-07-23T14:54:56;25.50;60.60
7234;DHT22;3658;47.992;10.158;2022-07-23T14:57:23;25.50;60.80
7234;DHT22;3658;47.992;10.158;2022-07-23T14:59:50;25.50;60.80
7234;DHT22;3658;47.992;10.158;2022-07-23T15:02:17;25.50;60.50
7234;DHT22;3658;47.992;10.158;2022-07-23T15:04:44;25.50;60.40
7234;DHT22;3658;47.992;10.158;2022-07-23T15:07:11;25.50;60.20
7234;DHT22;3658;47.992;10.158;2022-07-23T15:09:39;25.50;60.40
7234;DHT22;3658;47.992;10.158;2022-07-23T15:12:06;25.60;60.40
7234;DHT22;3658;47.992;10.158;2022-07-23T15:14:33;25.60;60.30
7234;DHT22;3658;47.992;10.158;2022-07-23T15:17:00;25.60;60.00
7234;DHT22;3658;47.992;10.158;2022-07-23T15:19:27;25.60;59.80
7234;DHT22;3658;47.992;10.158;2022-07-23T15:21:54;25.50;59.50
7234;DHT22;3658;47.992;10.158;2022-07-23T15:24:21;25.50;59.30
7234;DHT22;3658;47.992;10.158;2022-07-23T15:26:50;25.50;59.20
7234;DHT22;3658;47.992;10.158;2022-07-23T15:29:18;25.50;59.10
7234;DHT22;3658;47.992;10.158;2022-07-23T15:31:46;25.50;59.10
7234;DHT22;3658;47.992;10.158;2022-07-23T15:34:13;25.50;59.10
7234;DHT22;3658;47.992;10.158;2022-07-23T15:36:40;25.50;59.00
7234;DHT22;3658;47.992;10.158;2022-07-23T15:39:07;25.50;59.20
7234;DHT22;3658;47.992;10.158;2022-07-23T15:41:34;25.50;59.40
7234;DHT22;3658;47.992;10.158;2022-07-23T15:44:03;25.50;59.50
7234;DHT22;3658;47.992;10.158;2022-07-23T15:46:30;25.50;59.70
7234;DHT22;3658;47.992;10.158;2022-07-23T15:48:57;25.60;59.70
7234;DHT22;3658;47.992;10.158;2022-07-23T15:51:24;25.60;59.70
7234;DHT22;3658;47.992;10.158;2022-07-23T15:53:51;25.60;59.70
7234;DHT22;3658;47.992;10.158;2022-07-23T15:56:18;25.60;59.60
7234;DHT22;3658;47.992;10.158;2022-07-23T15:58:45;25.60;59.50
7234;DHT22;3658;47.992;10.158;2022-07-23T16:01:14;25.60;59.30
7234;DHT22;3658;47.992;10.158;2022-07-23T16:03:41;25.60;59.50
7234;DHT22;3658;47.992;10.158;2022-07-23T16:06:08;25.60;59.60
7234;DHT22;3658;47.992;10.158;2022-07-23T16:08:35;25.60;59.50